Station CDRF1 - Cedar Key, FL Image indicating link to RSS feed of recent meteorological observations for station CDRF1


Conditions at CDRF1 as of
(8:10 am EDT)
1210 GMT on 09/01/2026:
     

Click on the graph icon in the table below to see a time series plot of the last five days of that observation.

5-day plot - Wind Direction Wind Direction (WDIR): NE ( 40 deg true )
5-day plot - Wind Speed Wind Speed (WSPD): 6 kts
5-day plot - Wind Gust Wind Gust (GST): 9 kts
5-day plot - Atmospheric Pressure Atmospheric Pressure (PRES):30.04 in
5-day plot - Air Temperature Air Temperature (ATMP): 79.3 °F
5-day plot - Dew Point Dew Point (DEWP): 77.4 °F
5-day plot - Heat Index Heat Index (HEAT): 84.2 °F
5-day plot - Wind Speed at 10 Meters Wind Speed at 10 meters (WSPD10M): 6 kts
5-day plot - Wind Speed at 20 Meters Wind Speed at 20 meters (WSPD20M): 8 kts
5-day plot -  Wind Speed, Wind Gust and Atmospheric Pressure Combined plot of Wind Speed, Gust, and Air Pressure
Supplemental Measurements
Lowest 1-minute Pressure
Time (EDT)Pressure
8:05 am30.04 in
Highest 1-minute Wind Speed
Time (EDT)5-day plot - 1-Minute Wind Speed WSPD 5-day plot - 1-Minute Wind Direction WDIR
8:02 am 8 kts NE ( 50 deg true )
Previous observations
TIME
(EDT)
5-day plot - Wind Direction
WDIR
 
5-day plot - Wind Speed
WSPD
kts
5-day plot - Wind Gust
GST
kts
5-day plot - Wave Height
WVHT
ft
5-day plot - Dominant Wave Period
DPD
sec
5-day plot - Average Wave Period
APD
sec
5-day plot - Mean Wave Direction
MWD
 
5-day plot - Atmospheric Pressure
PRES
in
5-day plot - Pressure Tendency
PTDY
in
5-day plot - Air Temperature
ATMP
°F
5-day plot - Water Temperature
WTMP
°F
5-day plot - Dew Point
DEWP
°F
5-day plot - Salinity
SAL
psu
5-day plot - Visibility
VIS
nmi
5-day plot - Tide (above MLLW)
TIDE
ft
2026-09-01 08:00 amNNE 6 8----30.04+0.04 79.0- 77.2---
2026-09-01 07:50 am NE 6 8----30.04- 78.8- 77.4---
2026-09-01 07:40 am NE 7 10----30.03- 78.4- 77.2---
2026-09-01 07:30 am NE 8 10----30.03- 78.4- 77.4---
2026-09-01 07:20 am NE 7 10----30.03- 78.3- 77.2---
2026-09-01 07:10 am NE 7 10----30.02- 78.1- 77.0---
2026-09-01 07:00 am NE 7 10----30.01+0.02 78.1- 76.8---
2026-09-01 06:50 amNNE 6 9----30.01- 78.1- 76.6---
2026-09-01 06:40 amNNE 7 11----30.01- 78.6- 77.0---
2026-09-01 06:30 am NE 6 8----30.01- 78.8- 77.2---
2026-09-01 06:20 am NE 5 7----30.01- 78.8- 77.2---
2026-09-01 06:10 amNNE 5 7----30.00- 78.8- 77.2---
2026-09-01 06:00 am NE 6 8----30.01-0.01 78.8- 77.2---
2026-09-01 05:50 am NE 7 9----30.00- 79.0- 77.4---
2026-09-01 05:40 am NE 6 8----30.00- 79.2- 77.4---
2026-09-01 05:30 am NE 7 9----30.00- 79.2- 77.4---
2026-09-01 05:20 am NE 7 10----29.99- 79.2- 77.4---
2026-09-01 05:10 am NE 7 9----29.99- 79.3- 77.5---
2026-09-01 05:00 am NE 6 9----29.99-0.04 80.1- 77.9---
2026-09-01 04:50 amENE 7 9----29.99- 80.6- 77.7---
2026-09-01 04:40 amENE 7 8----29.99- 80.6- 77.9---
2026-09-01 04:30 am E 7 9----29.99- 80.8- 77.9---
2026-09-01 04:20 am E 8 10----29.99- 80.6- 77.5---
2026-09-01 04:10 am E 7 10----29.99- 80.6- 77.4---
2026-09-01 04:00 amENE 7 10----29.99-0.06 80.4- 77.2---
2026-09-01 03:50 am NE 8 10----29.99- 80.6- 77.5---
2026-09-01 03:40 amENE 7 10----30.00- 81.0- 76.8---
2026-09-01 03:30 amENE 7 8----30.00- 81.0- 77.0---
2026-09-01 03:20 amENE 6 7----30.01- 80.8- 77.4---
2026-09-01 03:10 amENE 6 7----30.01- 80.4- 77.4---
2026-09-01 03:00 am NE 6 7----30.01-0.04 80.1- 77.7---
2026-09-01 02:50 amNNE 5 7----30.02- 79.5- 77.5---
2026-09-01 02:40 am NE 5 7----30.02- 79.5- 77.5---
2026-09-01 02:30 amNNE 5 7----30.02- 79.3- 77.5---
2026-09-01 02:20 amNNE 5 8----30.03- 80.4- 78.1---
2026-09-01 02:10 am NE 7 9----30.03- 81.7- 78.3---
2026-09-01 02:00 am E 8 10----30.04-0.02 82.2- 77.4---
2026-09-01 01:50 am E 8 10----30.03- 82.4- 76.8---
2026-09-01 01:40 am E 7 8----30.03- 82.4- 77.4---
2026-09-01 01:30 am E 6 9----30.03- 82.0- 77.7---
2026-09-01 01:20 amENE 6 7----30.04- 81.5- 78.3---
2026-09-01 01:10 amENE 6 8----30.04- 81.1- 78.3---
2026-09-01 01:00 am NE 7 9----30.05+0.00 81.1- 78.4---
2026-09-01 12:50 amENE 7 8----30.05- 81.5- 78.4---
2026-09-01 12:40 amENE 5 7----30.04- 81.3- 78.3---
2026-09-01 12:30 am NE 5 6----30.05- 80.8- 78.1---
2026-09-01 12:20 am NE 4 6----30.05- 80.1- 77.5---
2026-09-01 12:10 amNNE 4 6----30.05- 79.7- 77.2---
2026-09-01 12:00 am NE 5 6----30.06+0.03 82.0- 77.4---
2026-08-31 11:50 pmESE 5 7----30.05- 83.1- 77.0---
2026-08-31 11:40 pm SE 6 7----30.04- 83.1- 76.8---
2026-08-31 11:30 pmSSE 6 9----30.04- 83.1- 77.0---
2026-08-31 11:20 pmSSE 4 6----30.04- 82.9- 77.2---
2026-08-31 11:10 pmSSE 4 6----30.05- 82.9- 76.8---
2026-08-31 11:00 pmSSE 5 6----30.05+0.06 82.9- 76.8---
2026-08-31 10:50 pmSSE 6 7----30.05- 82.9- 76.8---
2026-08-31 10:40 pmSSE 5 8----30.05- 82.9- 76.6---
2026-08-31 10:30 pmSSE 5 7----30.06- 82.8- 76.3---
2026-08-31 10:20 pm SE 6 8----30.05- 82.6- 76.1---
2026-08-31 10:10 pm SE 6 9----30.06- 82.4- 76.1---
2026-08-31 10:00 pmSSE 8 10----30.05+0.06 82.4- 76.1---
2026-08-31 09:50 pm SE 8 10----30.04- 82.2- 75.9---
2026-08-31 09:40 pmESE 7 9----30.03- 81.9- 76.6---
2026-08-31 09:30 pmESE 6 8----30.03- 82.0- 76.5---
2026-08-31 09:20 pm SE 4 7----30.03- 81.0- 74.3---
2026-08-31 09:10 pmSSE 2 4----30.02- 79.2- 73.4---
2026-08-31 09:00 pmESE 6 9----30.03+0.04 78.6- 73.6---
2026-08-31 08:50 pmESE 7 8----30.03- 78.1- 72.7---
2026-08-31 08:40 pmESE 11 14----30.02- 77.2- 73.8---
2026-08-31 08:30 pm E 18 25----30.02- 77.2- 74.3---
2026-08-31 08:20 pm E 23 27----30.01- 79.9- 75.0---
2026-08-31 08:10 pm NE 10 20----30.01- 84.4- 77.0---
2026-08-31 08:00 pm W 5 8----30.00+0.00 85.5- 77.5---
2026-08-31 07:50 pmWNW 5 8----29.99- 85.6- 77.4---
2026-08-31 07:40 pmWNW 6 10----29.99- 86.2- 77.0---
2026-08-31 06:40 pm W 6 8----29.99- 87.4- 77.2---
2026-08-31 06:30 pm W 7 9----29.99- 87.1- 76.8---
2026-08-31 06:20 pm W 5 9----29.98- 87.4- 76.8---
2026-08-31 06:10 pm W 7 10----29.98- 87.1- 76.6---
2026-08-31 06:00 pm W 6 10----29.98-0.03 87.6- 76.8---
2026-08-31 05:50 pm W 5 9----29.98- 87.4- 77.0---
2026-08-31 05:40 pm W 6 9----29.98- 87.3- 76.6---
2026-08-31 05:30 pm W 7 10----29.99- 87.1- 76.6---
2026-08-31 05:20 pm W 6 9----29.99- 87.1- 77.2---
2026-08-31 05:10 pm W 6 9----29.99- 86.9- 77.2---
2026-08-31 05:00 pmWSW 5 8----30.00-0.04 86.9- 77.5---
2026-08-31 04:50 pmWSW 5 7----30.00- 86.9- 77.7---
2026-08-31 04:40 pmWSW 5 8----30.00- 87.3- 77.5---
2026-08-31 04:30 pmWSW 4 6----30.00- 87.4- 77.5---
2026-08-31 04:20 pmWSW 5 8----30.01- 87.1- 77.7---
2026-08-31 04:10 pmWSW 5 8----30.01- 86.5- 78.1---
2026-08-31 04:00 pmWSW 5 10----30.00-0.06 86.2- 78.3---
2026-08-31 03:50 pmWSW 5 8----30.00- 86.4- 78.4---
2026-08-31 03:40 pmWSW 5 7----30.00- 86.2- 77.7---
2026-08-31 03:30 pmWSW 5 9----30.01- 86.0- 78.1---
2026-08-31 03:20 pmWSW 5 8----30.00- 86.0- 77.9---
2026-08-31 03:10 pm SW 4 7----30.01- 85.8- 77.7---
2026-08-31 03:00 pmWSW 4 8----30.01-0.07 85.8- 77.9---
2026-08-31 02:50 pm SW 4 7----30.02- 86.0- 77.9---
2026-08-31 02:40 pmSSW 3 6----30.02- 85.8- 77.7---
2026-08-31 02:30 pmSSW 4 6----30.03- 85.5- 77.5---
2026-08-31 02:20 pmSSW 4 6----30.03- 85.3- 77.5---
2026-08-31 02:10 pmSSW 4 5----30.03- 84.6- 77.0---
2026-08-31 02:00 pmSSW 4 5----30.04-0.04 84.6- 77.0---
2026-08-31 01:50 pmSSW 4 5----30.05- 84.0- 77.0---
2026-08-31 01:40 pm S 4 6----30.05- 84.2- 77.2---
2026-08-31 01:30 pmSSE 4 5----30.05- 83.8- 76.8---
2026-08-31 01:20 pm S 3 4----30.06- 83.7- 77.0---
2026-08-31 01:10 pmSSE 4 5----30.06- 83.1- 77.2---
2026-08-31 01:00 pm SE 5 5----30.06+0.00 82.9- 77.2---
2026-08-31 12:50 pm SE 5 5----30.06- 82.8- 77.5---
2026-08-31 12:40 pm SE 5 7----30.07- 82.6- 77.7---
2026-08-31 12:30 pmESE 4 5----30.07- 82.2- 77.7---
2026-08-31 12:20 pmESE 5 5----30.08- 82.0- 77.7---
2026-08-31 12:10 pmESE 5 6----30.08- 81.7- 78.1---
2026-08-31 12:00 pmESE 5 7----30.08+0.02 81.5- 78.1---
2026-08-31 11:50 amESE 5 6----30.08- 81.3- 77.9---
2026-08-31 11:40 am E 6 7----30.08- 81.0- 77.9---
2026-08-31 11:30 am E 6 7----30.08- 80.8- 77.9---
2026-08-31 11:20 am E 5 6----30.08- 80.6- 77.7---
2026-08-31 11:10 am E 5 6----30.08- 80.4- 77.5---
2026-08-31 11:00 amENE 4 5----30.08+0.03 80.2- 77.4---
2026-08-31 10:50 am E 4 6----30.08- 80.1- 77.4---
2026-08-31 10:40 am E 4 5----30.07- 80.1- 77.4---
2026-08-31 10:30 amENE 4 5----30.07- 79.7- 77.4---
2026-08-31 10:20 am NE 4 6----30.07- 79.2- 77.2---
2026-08-31 10:10 amENE 5 6----30.07- 79.0- 77.0---
2026-08-31 10:00 amENE 5 7----30.06+0.05 78.6- 77.0---
2026-08-31 09:50 am NE 5 8----30.06- 78.4- 77.2---
2026-08-31 09:40 amNNE 5 7----30.06- 77.7- 76.8---
2026-08-31 09:30 am NE 5 7----30.06- 77.0- 76.5---
2026-08-31 09:20 am NE 5 6----30.06- 76.6- 76.1---
2026-08-31 09:10 am NE 5 7----30.06- 76.8- 76.3---
2026-08-31 09:00 am NE 6 8----30.06+0.05 76.8- 76.3---
2026-08-31 08:50 am NE 7 8----30.06- 76.8- 76.3---
2026-08-31 08:40 am NE 7 9----30.06- 76.8- 76.5---
2026-08-31 08:30 amENE 6 7----30.06- 76.8- 76.5---
2026-08-31 08:20 amENE 6 7----30.06- 76.8- 76.5---
2026-08-31 08:10 amENE 5 7----30.05- 76.6- 76.3---
2026-08-31 08:00 amENE 5 7----30.05+0.04 76.6- 76.3---
2026-08-31 07:50 am NE 5 7----30.04- 76.6- 76.3---